createdAt,value
2019-02-12T00:00:55.629Z,19.71
2019-02-12T00:01:55.617Z,19.71
2019-02-12T00:02:55.606Z,19.71
2019-02-12T00:03:55.600Z,19.71
2019-02-12T00:04:55.605Z,19.70
2019-02-12T00:05:55.582Z,19.71
2019-02-12T00:06:55.589Z,19.71
2019-02-12T00:07:55.556Z,19.71
2019-02-12T00:08:55.546Z,19.70
2019-02-12T00:09:55.536Z,19.70
2019-02-12T00:10:55.525Z,19.70
2019-02-12T00:11:55.513Z,19.71
2019-02-12T00:12:55.721Z,19.70
2019-02-12T00:13:55.484Z,19.70
2019-02-12T00:14:55.474Z,19.69
2019-02-12T00:15:55.468Z,19.70
2019-02-12T00:16:55.456Z,19.70
2019-02-12T00:17:55.450Z,19.70
2019-02-12T00:18:55.451Z,19.70
2019-02-12T00:19:55.424Z,19.70
2019-02-12T00:20:55.430Z,19.70
2019-02-12T00:21:55.397Z,19.70
2019-02-12T00:22:55.391Z,19.70
2019-02-12T00:23:55.379Z,19.69
2019-02-12T00:24:55.385Z,19.69
2019-02-12T00:25:55.358Z,19.69
2019-02-12T00:26:55.371Z,19.69
2019-02-12T00:27:55.341Z,19.69
2019-02-12T00:28:55.326Z,19.69
2019-02-12T00:29:55.315Z,19.69
2019-02-12T00:30:55.331Z,19.69
2019-02-12T00:31:55.294Z,19.69
2019-02-12T00:32:55.278Z,19.70
2019-02-12T00:33:55.274Z,19.69
2019-02-12T00:34:55.263Z,19.69
2019-02-12T00:35:55.270Z,19.69
2019-02-12T00:36:55.245Z,19.69
2019-02-12T00:37:55.232Z,19.70
2019-02-12T00:38:55.216Z,19.69
2019-02-12T00:39:55.230Z,19.70
2019-02-12T00:40:55.218Z,19.69
2019-02-12T00:41:55.203Z,19.70
2019-02-12T00:42:55.180Z,19.70
2019-02-12T00:43:55.161Z,19.69
2019-02-12T00:44:55.180Z,19.69
2019-02-12T00:45:55.166Z,19.67
2019-02-12T00:46:55.128Z,19.69
2019-02-12T00:47:55.123Z,19.69
2019-02-12T00:48:55.108Z,19.70
2019-02-12T00:49:55.101Z,19.69
2019-02-12T00:50:55.116Z,19.69
2019-02-12T00:51:55.078Z,19.69
2019-02-12T00:52:55.064Z,19.69
2019-02-12T00:53:55.054Z,19.69
2019-02-12T00:54:55.049Z,19.69
2019-02-12T00:55:55.037Z,19.69
2019-02-12T00:56:55.057Z,19.67
2019-02-12T00:57:55.018Z,19.69
2019-02-12T00:58:55.003Z,19.69
2019-02-12T00:59:54.999Z,19.69
2019-02-12T01:00:54.988Z,19.69
2019-02-12T01:01:54.970Z,19.69
2019-02-12T01:02:55.005Z,19.67
2019-02-12T01:03:54.966Z,19.69
2019-02-12T01:04:54.935Z,19.66
2019-02-12T01:05:54.927Z,19.69
2019-02-12T01:06:54.922Z,19.69
2019-02-12T01:07:54.909Z,19.69
2019-02-12T01:08:54.919Z,19.69
2019-02-12T01:09:54.883Z,19.69
2019-02-12T01:10:54.875Z,19.67
2019-02-12T01:11:54.859Z,19.69
2019-02-12T01:12:54.851Z,19.67
2019-02-12T01:13:54.864Z,19.67
2019-02-12T01:14:54.848Z,19.67
2019-02-12T01:15:54.826Z,19.69
2019-02-12T01:16:54.806Z,19.67
2019-02-12T01:17:54.800Z,19.67
2019-02-12T01:18:54.792Z,19.69
2019-02-12T01:19:55.012Z,19.69
2019-02-12T01:20:54.770Z,19.67
2019-02-12T01:21:54.755Z,19.67
2019-02-12T01:22:54.743Z,19.67
2019-02-12T01:23:54.742Z,19.67
2019-02-12T01:24:54.728Z,19.67
2019-02-12T01:25:54.732Z,19.67
2019-02-12T01:26:54.710Z,19.67
2019-02-12T01:27:54.687Z,19.69
2019-02-12T01:28:54.704Z,19.67
2019-02-12T01:29:54.669Z,19.69
2019-02-12T01:30:54.664Z,19.67
2019-02-12T01:31:54.654Z,19.69
2019-02-12T01:32:54.637Z,19.69
2019-02-12T01:33:54.643Z,19.67
2019-02-12T01:34:54.636Z,19.69
2019-02-12T01:35:54.624Z,19.69
2019-02-12T01:36:54.606Z,19.69
2019-02-12T01:37:54.590Z,19.69
2019-02-12T01:38:54.570Z,19.67
2019-02-12T01:39:54.566Z,19.69
2019-02-12T01:40:54.844Z,19.69
2019-02-12T01:41:54.538Z,19.67
2019-02-12T01:42:54.527Z,19.67
2019-02-12T01:43:54.516Z,19.67
2019-02-12T01:44:54.510Z,19.69
2019-02-12T01:45:54.503Z,19.67
2019-02-12T01:46:54.525Z,19.67
2019-02-12T01:47:54.476Z,19.69
2019-02-12T01:48:54.465Z,19.69
2019-02-12T01:49:54.452Z,19.69
2019-02-12T01:50:54.450Z,19.69
2019-02-12T01:51:54.439Z,19.66
2019-02-12T01:52:54.446Z,19.67
2019-02-12T01:53:54.412Z,19.67
2019-02-12T01:54:54.399Z,19.69
2019-02-12T01:55:54.390Z,19.69
2019-02-12T01:56:54.413Z,19.69
2019-02-12T01:57:54.373Z,19.69
2019-02-12T01:58:54.378Z,19.69
2019-02-12T01:59:54.364Z,19.67
2019-02-12T02:00:54.341Z,19.69
2019-02-12T02:01:54.327Z,19.69
2019-02-12T02:02:54.313Z,19.69
2019-02-12T02:03:54.515Z,19.69
2019-02-12T02:04:54.294Z,19.67
2019-02-12T02:05:54.281Z,19.69
2019-02-12T02:06:54.278Z,19.67
2019-02-12T02:07:54.262Z,19.67
2019-02-12T02:08:54.254Z,19.69
2019-02-12T02:09:54.450Z,19.70
2019-02-12T02:10:54.236Z,19.67
2019-02-12T02:11:54.224Z,19.69
2019-02-12T02:12:54.205Z,19.67
2019-02-12T02:13:54.197Z,19.67
2019-02-12T02:14:54.184Z,19.67
2019-02-12T02:15:54.196Z,19.69
2019-02-12T02:16:54.164Z,19.69
2019-02-12T02:17:54.155Z,19.67
2019-02-12T02:18:54.141Z,19.69
2019-02-12T02:19:54.134Z,19.69
2019-02-12T02:20:54.125Z,19.67
2019-02-12T02:21:54.333Z,19.67
2019-02-12T02:22:54.105Z,19.69
2019-02-12T02:23:54.091Z,19.69
2019-02-12T02:24:54.080Z,19.67
2019-02-12T02:25:54.074Z,19.69
2019-02-12T02:26:54.062Z,19.67
2019-02-12T02:27:54.067Z,19.69
2019-02-12T02:28:54.054Z,19.69
2019-02-12T02:29:54.028Z,19.67
2019-02-12T02:30:54.023Z,19.69
2019-02-12T02:31:54.015Z,19.67
2019-02-12T02:32:54.037Z,19.67
2019-02-12T02:33:53.981Z,19.69
2019-02-12T02:34:53.976Z,19.67
2019-02-12T02:35:53.961Z,19.69
2019-02-12T02:36:53.952Z,19.67
2019-02-12T02:37:53.945Z,19.67
2019-02-12T02:38:53.957Z,19.67
2019-02-12T02:39:53.920Z,19.69
2019-02-12T02:40:53.915Z,19.69
2019-02-12T02:41:53.896Z,19.69
2019-02-12T02:42:53.911Z,19.69
2019-02-12T02:43:53.894Z,19.67
2019-02-12T02:44:53.870Z,19.67
2019-02-12T02:45:53.863Z,19.67
2019-02-12T02:46:53.847Z,19.67
2019-02-12T02:47:53.838Z,19.67
2019-02-12T02:48:53.833Z,19.69
2019-02-12T02:49:53.832Z,19.67
2019-02-12T02:50:53.808Z,19.67
2019-02-12T02:51:54.278Z,19.69
2019-02-12T02:52:53.784Z,19.67
2019-02-12T02:53:53.850Z,19.67
2019-02-12T02:54:54.143Z,19.67
2019-02-12T02:55:53.764Z,19.67
2019-02-12T02:56:53.736Z,19.67
2019-02-12T02:57:53.725Z,19.69
2019-02-12T02:58:53.723Z,19.67
2019-02-12T02:59:53.710Z,19.69
2019-02-12T03:00:53.722Z,19.69
2019-02-12T03:01:53.686Z,19.67
2019-02-12T03:02:53.679Z,19.67
2019-02-12T03:03:53.665Z,19.66
2019-02-12T03:04:53.657Z,19.67
2019-02-12T03:05:53.655Z,19.67
2019-02-12T03:06:53.911Z,19.67
2019-02-12T03:07:53.626Z,19.67
2019-02-12T03:08:53.612Z,19.67
2019-02-12T03:09:53.601Z,19.67
2019-02-12T03:10:53.591Z,19.67
2019-02-12T03:11:53.580Z,19.67
2019-02-12T03:12:53.595Z,19.66
2019-02-12T03:13:53.559Z,19.69
2019-02-12T03:14:53.546Z,19.67
2019-02-12T03:15:53.541Z,19.69
2019-02-12T03:16:53.522Z,19.69
2019-02-12T03:17:53.519Z,19.69
2019-02-12T03:18:53.552Z,19.66
2019-02-12T03:19:53.494Z,19.67
2019-02-12T03:20:53.486Z,19.67
2019-02-12T03:21:53.476Z,19.67
2019-02-12T03:22:53.485Z,19.67
2019-02-12T03:23:53.454Z,19.67
2019-02-12T03:24:53.441Z,19.67
2019-02-12T03:25:53.430Z,19.69
2019-02-12T03:26:53.418Z,19.67
2019-02-12T03:27:53.433Z,19.66
2019-02-12T03:28:53.426Z,19.69
2019-02-12T03:29:53.388Z,19.67
2019-02-12T03:30:53.381Z,19.69
2019-02-12T03:31:53.401Z,19.69
2019-02-12T03:32:53.359Z,19.67
2019-02-12T03:33:53.363Z,19.66
2019-02-12T03:34:53.352Z,19.69
2019-02-12T03:35:53.318Z,19.66
2019-02-12T03:36:53.311Z,19.67
2019-02-12T03:37:53.302Z,19.67
2019-02-12T03:38:53.312Z,19.66
2019-02-12T03:39:53.286Z,19.66
2019-02-12T03:40:53.483Z,19.66
2019-02-12T03:41:53.261Z,19.67
2019-02-12T03:42:53.250Z,19.67
2019-02-12T03:43:53.232Z,19.67
2019-02-12T03:44:53.228Z,19.67
2019-02-12T03:45:53.214Z,19.66
2019-02-12T03:46:53.224Z,19.67
2019-02-12T03:47:53.194Z,19.67
2019-02-12T03:48:53.181Z,19.67
2019-02-12T03:49:53.171Z,19.67
2019-02-12T03:50:53.160Z,19.69
2019-02-12T03:51:53.206Z,19.67
2019-02-12T03:52:53.162Z,19.66
2019-02-12T03:53:53.132Z,19.64
2019-02-12T03:54:53.117Z,19.66
2019-02-12T03:55:53.108Z,19.67
2019-02-12T03:56:53.095Z,19.67
2019-02-12T03:57:53.109Z,19.66
2019-02-12T03:58:53.076Z,19.67
2019-02-12T03:59:53.069Z,19.66
2019-02-12T04:00:53.052Z,19.66
2019-02-12T04:01:53.047Z,19.66
2019-02-12T04:02:53.038Z,19.66
2019-02-12T04:03:53.052Z,19.67
2019-02-12T04:04:53.013Z,19.67
2019-02-12T04:05:53.005Z,19.66
2019-02-12T04:06:53.002Z,19.66
2019-02-12T04:07:52.986Z,19.66
2019-02-12T04:08:52.967Z,19.66
2019-02-12T04:09:52.979Z,19.67
2019-02-12T04:10:52.954Z,19.66
2019-02-12T04:11:52.962Z,19.67
2019-02-12T04:12:52.950Z,19.67
2019-02-12T04:13:52.923Z,19.67
2019-02-12T04:14:52.901Z,19.66
2019-02-12T04:15:52.912Z,19.66
2019-02-12T04:16:52.883Z,19.67
2019-02-12T04:17:52.877Z,19.66
2019-02-12T04:18:52.872Z,19.66
2019-02-12T04:19:52.871Z,19.66
2019-02-12T04:20:52.844Z,19.66
2019-02-12T04:21:52.828Z,19.66
2019-02-12T04:22:52.820Z,19.66
2019-02-12T04:23:52.807Z,19.66
2019-02-12T04:24:52.860Z,19.66
2019-02-12T04:25:52.791Z,19.66
2019-02-12T04:26:52.778Z,19.66
2019-02-12T04:27:52.773Z,19.66
2019-02-12T04:28:52.759Z,19.66
2019-02-12T04:29:52.750Z,19.64
2019-02-12T04:30:52.756Z,19.66
2019-02-12T04:31:52.736Z,19.64
2019-02-12T04:32:52.713Z,19.66
2019-02-12T04:33:52.703Z,19.66
2019-02-12T04:34:52.704Z,19.66
2019-02-12T04:35:52.676Z,19.66
2019-02-12T04:36:52.944Z,19.66
2019-02-12T04:37:52.659Z,19.66
2019-02-12T04:38:52.646Z,19.66
2019-02-12T04:39:52.641Z,19.64
2019-02-12T04:40:52.629Z,19.66
2019-02-12T04:41:52.616Z,19.66
2019-02-12T04:42:52.622Z,19.63
2019-02-12T04:43:52.596Z,19.64
2019-02-12T04:44:54.271Z,19.64
2019-02-12T04:45:52.591Z,19.64
2019-02-12T04:46:52.614Z,19.64
2019-02-12T04:47:52.547Z,19.64
2019-02-12T04:48:52.542Z,19.64
2019-02-12T04:49:52.536Z,19.66
2019-02-12T04:50:52.537Z,19.64
2019-02-12T04:51:52.506Z,19.64
2019-02-12T04:52:52.498Z,19.66
2019-02-12T04:53:52.488Z,19.64
2019-02-12T04:54:52.477Z,19.64
2019-02-12T04:55:52.478Z,19.66
2019-02-12T04:56:52.503Z,19.64
2019-02-12T04:57:52.479Z,19.64
2019-02-12T04:58:52.430Z,19.63
2019-02-12T04:59:52.422Z,19.66
2019-02-12T05:00:52.411Z,19.66
2019-02-12T05:01:52.400Z,19.64
2019-02-12T05:02:52.410Z,19.63
2019-02-12T05:03:52.383Z,19.66
2019-02-12T05:04:52.371Z,19.66
2019-02-12T05:05:52.361Z,19.64
2019-02-12T05:06:52.349Z,19.64
2019-02-12T05:07:52.361Z,19.64
2019-02-12T05:08:52.350Z,19.64
2019-02-12T05:09:52.321Z,19.64
2019-02-12T05:10:52.312Z,19.64
2019-02-12T05:11:52.296Z,19.66
2019-02-12T05:12:52.303Z,19.64
2019-02-12T05:13:52.271Z,19.64
2019-02-12T05:14:52.260Z,19.66
2019-02-12T05:15:52.270Z,19.63
2019-02-12T05:16:52.252Z,19.64
2019-02-12T05:17:52.227Z,19.66
2019-02-12T05:18:52.223Z,19.63
2019-02-12T05:19:52.209Z,19.66
2019-02-12T05:20:52.244Z,19.64
2019-02-12T05:21:52.200Z,19.64
2019-02-12T05:22:52.180Z,19.64
2019-02-12T05:23:52.164Z,19.64
2019-02-12T05:24:52.161Z,19.64
2019-02-12T05:25:52.166Z,19.64
2019-02-12T05:26:52.136Z,19.64
2019-02-12T05:27:52.121Z,19.67
2019-02-12T05:28:52.136Z,19.66
2019-02-12T05:29:52.107Z,19.66
2019-02-12T05:30:52.109Z,19.64
2019-02-12T05:31:52.085Z,19.64
2019-02-12T05:32:52.070Z,19.66
2019-02-12T05:33:52.077Z,19.64
2019-02-12T05:34:52.047Z,19.66
2019-02-12T05:35:52.059Z,19.66
2019-02-12T05:36:52.029Z,19.66
2019-02-12T05:37:52.019Z,19.64
2019-02-12T05:38:52.009Z,19.64
2019-02-12T05:39:51.993Z,19.67
2019-02-12T05:40:52.022Z,19.66
2019-02-12T05:41:51.980Z,19.66
2019-02-12T05:42:51.968Z,19.66
2019-02-12T05:43:51.958Z,19.66
2019-02-12T05:44:51.937Z,19.64
2019-02-12T05:45:51.934Z,19.66
2019-02-12T05:46:51.944Z,19.66
2019-02-12T05:47:51.910Z,19.64
2019-02-12T05:48:51.895Z,19.66
2019-02-12T05:49:51.909Z,19.66
2019-02-12T05:50:51.875Z,19.67
2019-02-12T05:51:51.882Z,19.66
2019-02-12T05:52:54.490Z,19.66
2019-02-12T05:53:51.853Z,19.66
2019-02-12T05:54:51.830Z,19.66
2019-02-12T05:55:51.851Z,19.69
2019-02-12T05:56:51.817Z,19.67
2019-02-12T05:57:51.807Z,19.69
2019-02-12T05:58:51.788Z,19.69
2019-02-12T05:59:51.778Z,19.69
2019-02-12T06:00:51.770Z,19.67
2019-02-12T06:01:51.970Z,19.67
2019-02-12T06:02:51.749Z,19.67
2019-02-12T06:03:51.758Z,19.67
2019-02-12T06:04:51.728Z,19.67
2019-02-12T06:05:51.716Z,19.67
2019-02-12T06:06:51.709Z,19.67
2019-02-12T06:07:51.918Z,19.67
2019-02-12T06:08:51.680Z,19.67
2019-02-12T06:09:51.673Z,19.69
2019-02-12T06:10:51.663Z,19.69
2019-02-12T06:11:51.652Z,19.67
2019-02-12T06:12:51.655Z,19.67
2019-02-12T06:13:51.654Z,19.69
2019-02-12T06:14:51.619Z,19.67
2019-02-12T06:15:51.611Z,19.69
2019-02-12T06:16:51.618Z,19.67
2019-02-12T06:17:51.583Z,19.67
2019-02-12T06:18:51.599Z,19.67
2019-02-12T06:19:51.571Z,19.67
2019-02-12T06:20:51.556Z,19.67
2019-02-12T06:21:51.548Z,19.67
2019-02-12T06:22:51.558Z,19.66
2019-02-12T06:23:51.523Z,19.66
2019-02-12T06:24:51.507Z,19.67
2019-02-12T06:25:51.521Z,19.67
2019-02-12T06:26:51.508Z,19.67
2019-02-12T06:27:51.517Z,19.67
2019-02-12T06:28:51.468Z,19.67
2019-02-12T06:29:51.462Z,19.66
2019-02-12T06:30:51.450Z,19.66
2019-02-12T06:31:51.437Z,19.67
2019-02-12T06:32:51.421Z,19.66
2019-02-12T06:33:51.444Z,19.66
2019-02-12T06:34:51.408Z,19.64
2019-02-12T06:35:51.392Z,19.67
2019-02-12T06:36:51.381Z,19.66
2019-02-12T06:37:51.377Z,19.67
2019-02-12T06:38:51.358Z,19.64
2019-02-12T06:39:51.386Z,19.66
2019-02-12T06:40:51.339Z,19.66
2019-02-12T06:41:51.333Z,19.64
2019-02-12T06:42:51.323Z,19.64
2019-02-12T06:43:51.305Z,19.64
2019-02-12T06:44:51.318Z,19.63
2019-02-12T06:45:51.302Z,19.66
2019-02-12T06:46:51.279Z,19.66
2019-02-12T06:47:51.304Z,19.64
2019-02-12T06:48:51.255Z,19.67
2019-02-12T06:49:51.248Z,19.64
2019-02-12T06:50:51.232Z,19.66
2019-02-12T06:51:51.223Z,19.67
2019-02-12T06:52:51.213Z,19.66
2019-02-12T06:53:51.232Z,19.66
2019-02-12T06:54:51.233Z,19.66
2019-02-12T06:55:51.175Z,19.67
2019-02-12T06:56:51.170Z,19.67
2019-02-12T06:57:51.160Z,19.67
2019-02-12T06:58:51.167Z,19.67
2019-02-12T06:59:51.156Z,19.67
2019-02-12T07:00:51.130Z,19.69
2019-02-12T07:01:51.140Z,19.67
2019-02-12T07:02:51.103Z,19.69
2019-02-12T07:03:51.092Z,19.67
2019-02-12T07:04:51.082Z,19.70
2019-02-12T07:05:51.074Z,19.69
2019-02-12T07:06:51.058Z,19.69
2019-02-12T07:07:51.069Z,19.69
2019-02-12T07:08:51.037Z,19.70
2019-02-12T07:09:51.033Z,19.71
2019-02-12T07:10:51.020Z,19.71
2019-02-12T07:11:51.216Z,19.70
2019-02-12T07:12:51.009Z,19.71
2019-02-12T07:13:50.987Z,19.71
2019-02-12T07:14:50.973Z,19.73
2019-02-12T07:15:50.967Z,19.73
2019-02-12T07:16:50.950Z,19.73
2019-02-12T07:17:51.018Z,19.73
2019-02-12T07:18:50.928Z,19.74
2019-02-12T07:19:50.923Z,19.73
2019-02-12T07:20:50.909Z,19.74
2019-02-12T07:21:50.910Z,19.74
2019-02-12T07:22:50.905Z,19.76
2019-02-12T07:23:51.156Z,19.76
2019-02-12T07:24:50.865Z,19.76
2019-02-12T07:25:50.857Z,19.77
2019-02-12T07:26:50.847Z,19.76
2019-02-12T07:27:50.835Z,19.77
2019-02-12T07:28:50.826Z,19.77
2019-02-12T07:29:50.830Z,19.77
2019-02-12T07:30:50.803Z,19.77
2019-02-12T07:31:50.792Z,19.77
2019-02-12T07:32:50.820Z,19.77
2019-02-12T07:33:50.767Z,19.77
2019-02-12T07:34:50.757Z,19.77
2019-02-12T07:35:50.748Z,19.77
2019-02-12T07:36:50.755Z,19.76
2019-02-12T07:37:50.724Z,19.77
2019-02-12T07:38:50.719Z,19.77
2019-02-12T07:39:50.703Z,19.79
2019-02-12T07:40:50.693Z,19.77
2019-02-12T07:41:50.678Z,19.79
2019-02-12T07:42:50.699Z,19.79
2019-02-12T07:43:50.659Z,19.79
2019-02-12T07:44:50.643Z,19.79
2019-02-12T07:45:50.645Z,19.81
2019-02-12T07:46:50.630Z,19.79
2019-02-12T07:47:50.616Z,19.79
2019-02-12T07:48:50.636Z,19.79
2019-02-12T07:49:50.599Z,19.79
2019-02-12T07:50:50.584Z,19.79
2019-02-12T07:51:50.577Z,19.79
2019-02-12T07:52:50.565Z,19.79
2019-02-12T07:53:50.559Z,19.79
2019-02-12T07:54:50.761Z,19.79
2019-02-12T07:55:51.481Z,19.79
2019-02-12T07:56:50.521Z,19.79
2019-02-12T07:57:50.527Z,19.79
2019-02-12T07:58:50.499Z,19.79
2019-02-12T07:59:50.504Z,19.79
2019-02-12T08:00:50.504Z,19.81
2019-02-12T08:01:50.467Z,19.77
2019-02-12T08:02:50.468Z,19.79
2019-02-12T08:03:50.442Z,19.79
2019-02-12T08:04:50.453Z,19.79
2019-02-12T08:05:50.428Z,19.79
2019-02-12T08:06:50.413Z,19.77
2019-02-12T08:07:50.401Z,19.77
2019-02-12T08:08:50.410Z,19.77
2019-02-12T08:09:50.377Z,19.79
2019-02-12T08:10:50.392Z,19.79
2019-02-12T08:11:50.359Z,19.79
2019-02-12T08:12:50.364Z,19.79
2019-02-12T08:13:50.338Z,19.76
2019-02-12T08:14:50.499Z,19.79
2019-02-12T08:15:50.316Z,19.77
2019-02-12T08:16:50.309Z,19.79
2019-02-12T08:17:50.299Z,19.77
2019-02-12T08:18:50.310Z,19.77
2019-02-12T08:19:50.302Z,19.77
2019-02-12T08:20:50.267Z,19.77
2019-02-12T08:21:50.253Z,19.77
2019-02-12T08:22:50.238Z,19.79
2019-02-12T08:23:50.234Z,19.76
2019-02-12T08:24:50.222Z,19.79
2019-02-12T08:25:50.226Z,19.76
2019-02-12T08:26:50.194Z,19.76
2019-02-12T08:27:50.192Z,19.77
2019-02-12T08:28:52.050Z,19.77
2019-02-12T08:29:50.166Z,19.76
2019-02-12T08:30:50.444Z,19.74
2019-02-12T08:31:50.153Z,19.76
2019-02-12T08:32:50.136Z,19.76
2019-02-12T08:33:50.128Z,19.74
2019-02-12T08:34:50.111Z,19.76
2019-02-12T08:35:57.118Z,19.76
2019-02-12T08:36:51.126Z,19.76
2019-02-12T08:37:50.075Z,19.76
2019-02-12T08:38:50.072Z,19.74
2019-02-12T08:39:50.062Z,19.76
2019-02-12T08:40:50.053Z,19.74
2019-02-12T08:41:50.082Z,19.74
2019-02-12T08:42:50.029Z,19.76
2019-02-12T08:43:50.017Z,19.74
2019-02-12T08:44:50.003Z,19.77
2019-02-12T08:45:49.993Z,19.76
2019-02-12T08:46:49.983Z,19.76
2019-02-12T08:47:49.993Z,19.74
2019-02-12T08:48:49.963Z,19.76
2019-02-12T08:49:49.953Z,19.76
2019-02-12T08:50:49.944Z,19.74
2019-02-12T08:51:49.954Z,19.74
2019-02-12T08:52:49.977Z,19.74
2019-02-12T08:53:50.758Z,19.74
2019-02-12T08:54:49.903Z,19.76
2019-02-12T08:55:49.896Z,19.74
2019-02-12T08:56:49.877Z,19.74
2019-02-12T08:57:49.867Z,19.73
2019-02-12T08:58:49.874Z,19.74
2019-02-12T08:59:49.855Z,19.77
2019-02-12T09:00:49.838Z,19.77
2019-02-12T09:01:49.820Z,19.77
2019-02-12T09:02:49.810Z,19.79
2019-02-12T09:03:49.825Z,19.81
2019-02-12T09:04:49.802Z,19.79
2019-02-12T09:05:49.782Z,19.79
2019-02-12T09:06:49.765Z,19.79
2019-02-12T09:07:49.760Z,19.81
2019-02-12T09:08:49.745Z,19.81
2019-02-12T09:09:49.766Z,19.82
2019-02-12T09:10:49.721Z,19.82
2019-02-12T09:11:49.723Z,19.81
2019-02-12T09:12:49.706Z,19.82
2019-02-12T09:13:49.695Z,19.82
2019-02-12T09:14:49.702Z,19.81
2019-02-12T09:15:49.687Z,19.82
2019-02-12T09:16:49.680Z,19.81
2019-02-12T09:17:49.654Z,19.82
2019-02-12T09:18:49.643Z,19.81
2019-02-12T09:19:49.630Z,19.81
2019-02-12T09:20:49.625Z,19.81
2019-02-12T09:21:49.632Z,19.81
2019-02-12T09:22:49.598Z,19.82
2019-02-12T09:23:49.583Z,19.84
2019-02-12T09:24:49.571Z,19.84
2019-02-12T09:25:49.560Z,19.82
2019-02-12T09:26:49.580Z,19.82
2019-02-12T09:27:49.559Z,19.82
2019-02-12T09:28:49.538Z,19.84
2019-02-12T09:29:49.521Z,19.84
2019-02-12T09:30:49.509Z,19.84
2019-02-12T09:31:49.518Z,19.84
2019-02-12T09:32:49.489Z,19.85
2019-02-12T09:33:49.476Z,19.84
2019-02-12T09:34:49.472Z,19.84
2019-02-12T09:35:49.462Z,19.85
2019-02-12T09:36:49.474Z,19.85
2019-02-12T09:37:49.443Z,19.85
2019-02-12T09:38:49.435Z,19.85
2019-02-12T09:39:49.415Z,19.85
2019-02-12T09:40:49.398Z,19.86
2019-02-12T09:41:49.388Z,19.86
2019-02-12T09:42:49.395Z,19.88
2019-02-12T09:43:49.376Z,19.88
2019-02-12T09:44:49.365Z,19.88
2019-02-12T09:45:49.349Z,19.88
2019-02-12T09:46:49.338Z,19.89
2019-02-12T09:47:49.542Z,19.91
2019-02-12T09:48:49.314Z,19.88
2019-02-12T09:49:49.308Z,19.89
2019-02-12T09:50:49.314Z,19.89
2019-02-12T09:51:49.290Z,19.89
2019-02-12T09:52:49.277Z,19.89
2019-02-12T09:53:49.295Z,19.89
2019-02-12T09:54:49.266Z,19.91
2019-02-12T09:55:49.263Z,19.92
2019-02-12T09:56:49.231Z,19.95
2019-02-12T09:57:49.224Z,19.99
2019-02-12T09:58:49.216Z,20.03
2019-02-12T09:59:49.413Z,20.06
2019-02-12T10:00:49.198Z,20.11
2019-02-12T10:01:49.185Z,20.18
2019-02-12T10:02:49.172Z,20.22
2019-02-12T10:03:49.164Z,20.28
2019-02-12T10:04:49.154Z,20.31
2019-02-12T10:05:49.351Z,20.39
2019-02-12T10:06:49.126Z,20.48
2019-02-12T10:07:49.190Z,20.55
2019-02-12T10:08:49.109Z,20.60
2019-02-12T10:09:49.098Z,20.65
2019-02-12T10:10:49.101Z,20.69
2019-02-12T10:11:49.100Z,20.74
2019-02-12T10:12:49.798Z,20.80
2019-02-12T10:13:49.053Z,20.84
2019-02-12T10:14:49.048Z,20.87
2019-02-12T10:15:49.035Z,20.90
2019-02-12T10:16:49.045Z,20.95
2019-02-12T10:17:49.013Z,20.97
2019-02-12T10:18:49.023Z,20.99
2019-02-12T10:19:48.988Z,21.00
2019-02-12T10:20:48.976Z,21.02
2019-02-12T10:21:48.965Z,21.03
2019-02-12T10:22:48.955Z,21.06
2019-02-12T10:23:48.951Z,21.06
2019-02-12T10:24:48.960Z,21.06
2019-02-12T10:25:48.919Z,21.07
2019-02-12T10:26:48.915Z,21.07
2019-02-12T10:27:48.902Z,21.11
2019-02-12T10:28:49.260Z,21.09
2019-02-12T10:29:48.885Z,21.09
2019-02-12T10:30:49.344Z,21.09
2019-02-12T10:31:48.860Z,21.11
2019-02-12T10:32:48.845Z,21.09
2019-02-12T10:33:48.847Z,21.11
2019-02-12T10:34:48.829Z,21.11
2019-02-12T10:35:48.810Z,21.11
2019-02-12T10:36:49.080Z,21.12
2019-02-12T10:37:48.794Z,21.09
2019-02-12T10:38:48.776Z,21.12
2019-02-12T10:39:48.778Z,21.11
2019-02-12T10:40:48.761Z,21.12
2019-02-12T10:41:48.745Z,21.09
2019-02-12T10:42:48.950Z,21.11
2019-02-12T10:43:48.726Z,21.11
2019-02-12T10:44:48.716Z,21.09
2019-02-12T10:45:48.699Z,21.11
2019-02-12T10:46:48.697Z,21.11
2019-02-12T10:47:48.679Z,21.11
2019-02-12T10:48:48.701Z,21.07
2019-02-12T10:49:48.724Z,21.09
2019-02-12T10:50:48.644Z,21.07
2019-02-12T10:51:48.634Z,21.07
2019-02-12T10:52:48.625Z,21.06
2019-02-12T10:53:48.615Z,21.07
2019-02-12T10:54:48.627Z,21.06
2019-02-12T10:55:48.593Z,21.06
2019-02-12T10:56:48.588Z,21.06
2019-02-12T10:57:48.570Z,21.05
2019-02-12T10:58:48.558Z,21.05
2019-02-12T10:59:48.566Z,21.03
2019-02-12T11:00:48.562Z,21.02
2019-02-12T11:01:48.522Z,21.02
2019-02-12T11:02:48.517Z,21.00
2019-02-12T11:03:48.500Z,21.00
2019-02-12T11:04:48.791Z,21.00
2019-02-12T11:05:48.476Z,20.99
2019-02-12T11:06:48.469Z,20.97
2019-02-12T11:07:48.462Z,20.96
2019-02-12T11:08:48.446Z,20.96
2019-02-12T11:09:48.443Z,20.95
2019-02-12T11:10:48.448Z,20.95
2019-02-12T11:11:48.413Z,20.93
2019-02-12T11:12:48.399Z,20.92
2019-02-12T11:13:48.385Z,20.93
2019-02-12T11:14:48.373Z,20.92
2019-02-12T11:15:48.368Z,20.92
2019-02-12T11:16:48.415Z,20.90
2019-02-12T11:17:48.342Z,20.90
2019-02-12T11:18:48.337Z,20.90
2019-02-12T11:19:48.328Z,20.88
2019-02-12T11:20:48.310Z,20.88
2019-02-12T11:21:48.296Z,20.85
2019-02-12T11:22:48.311Z,20.87
2019-02-12T11:23:48.281Z,20.85
2019-02-12T11:24:48.271Z,20.85
2019-02-12T11:25:48.262Z,20.84
2019-02-12T11:26:48.249Z,20.84
2019-02-12T11:27:48.240Z,20.82
2019-02-12T11:28:48.439Z,20.82
2019-02-12T11:29:48.208Z,20.82
2019-02-12T11:30:48.205Z,20.81
2019-02-12T11:31:48.185Z,20.81
2019-02-12T11:32:48.176Z,20.81
2019-02-12T11:33:48.178Z,20.80
2019-02-12T11:34:48.386Z,20.78
2019-02-12T11:35:48.145Z,20.78
2019-02-12T11:36:48.137Z,20.77
2019-02-12T11:37:48.128Z,20.78
2019-02-12T11:38:48.109Z,20.75
2019-02-12T11:39:48.103Z,20.75
2019-02-12T11:40:48.296Z,20.75
2019-02-12T11:41:48.072Z,20.74
2019-02-12T11:42:48.089Z,20.74
2019-02-12T11:43:48.052Z,20.72
2019-02-12T11:44:48.050Z,20.74
2019-02-12T11:45:48.035Z,20.72
2019-02-12T11:46:48.039Z,20.70
2019-02-12T11:47:48.016Z,20.69
2019-02-12T11:48:47.997Z,20.70
2019-02-12T11:49:47.987Z,20.69
2019-02-12T11:50:48.005Z,20.69
2019-02-12T11:51:47.972Z,20.67
2019-02-12T11:52:47.978Z,20.66
2019-02-12T11:53:47.946Z,20.67
2019-02-12T11:54:47.936Z,20.66
2019-02-12T11:55:47.926Z,20.65
2019-02-12T11:56:48.019Z,20.65
2019-02-12T11:57:47.920Z,20.63
2019-02-12T11:58:47.889Z,20.65
2019-02-12T11:59:47.879Z,20.62
2019-02-12T12:00:47.873Z,20.63
2019-02-12T12:01:47.863Z,20.60
2019-02-12T12:02:47.873Z,20.62
2019-02-12T12:03:47.840Z,20.60
2019-02-12T12:04:47.828Z,20.60
2019-02-12T12:05:47.815Z,20.59
2019-02-12T12:06:47.800Z,20.58
2019-02-12T12:07:47.803Z,20.56
2019-02-12T12:08:47.812Z,20.55
2019-02-12T12:09:47.776Z,20.56
2019-02-12T12:10:47.758Z,20.55
2019-02-12T12:11:47.748Z,20.52
2019-02-12T12:12:47.868Z,20.51
2019-02-12T12:13:47.730Z,20.50
2019-02-12T12:14:47.740Z,20.50
2019-02-12T12:15:47.707Z,20.50
2019-02-12T12:16:47.699Z,20.48
2019-02-12T12:17:47.689Z,20.48
2019-02-12T12:18:47.673Z,20.47
2019-02-12T12:19:47.671Z,20.47
2019-02-12T12:20:47.683Z,20.47
2019-02-12T12:21:47.646Z,20.47
2019-02-12T12:22:47.629Z,20.43
2019-02-12T12:23:47.626Z,20.43
2019-02-12T12:24:51.526Z,20.43
2019-02-12T12:25:47.604Z,20.43
2019-02-12T12:26:47.674Z,20.43
2019-02-12T12:27:47.575Z,20.43
2019-02-12T12:28:47.580Z,20.43
2019-02-12T12:29:47.559Z,20.47
2019-02-12T12:30:47.552Z,20.48
2019-02-12T12:31:47.559Z,20.51
2019-02-12T12:32:47.550Z,20.55
2019-02-12T12:33:47.516Z,20.56
2019-02-12T12:34:47.501Z,20.60
2019-02-12T12:35:47.498Z,20.65
2019-02-12T12:36:47.497Z,20.66
2019-02-12T12:37:47.470Z,20.70
2019-02-12T12:38:47.524Z,20.74
2019-02-12T12:39:47.447Z,20.77
2019-02-12T12:40:47.458Z,20.80
2019-02-12T12:41:47.429Z,20.82
2019-02-12T12:42:47.412Z,20.85
2019-02-12T12:43:47.423Z,20.88
2019-02-12T12:44:47.397Z,20.90
2019-02-12T12:45:47.401Z,20.93
2019-02-12T12:46:47.370Z,20.95
2019-02-12T12:47:47.375Z,20.96
2019-02-12T12:48:47.351Z,20.99
2019-02-12T12:49:47.337Z,20.99
2019-02-12T12:50:47.346Z,20.99
2019-02-12T12:51:47.316Z,21.00
2019-02-12T12:52:47.310Z,21.02